Flight Track Log - Related Links

Times and Time Zones

All times are in EDT time to prevent confusion due to time zone crossing. See the ASQ5346 flight status page for this flight to view local times or setup timezone preferences in your user account.

Time Position Orientation Groundspeed Altitude Reporting Facility
EDT Latitude Longitude Course Direction KTS MPH feet Rate Location/Type
Thu 08:01:33 AM 40.6406 -89.6442 96° East 188 216 2,800  Level Chicago Center
Thu 08:02:35 AM 40.6172 -89.5661 111° Southeast 234 269 4,400 2,371 Climbing Chicago Center
Thu 08:03:37 AM 40.6139 -89.4578 92° East 290 334 7,700 2,952 Climbing Chicago Center
Thu 08:04:39 AM 40.6119 -89.3458 91° East 301 346 10,500 2,293 Climbing Chicago Center
Thu 08:05:40 AM 40.6086 -89.2244 92° East 325 374 12,400 1,756 Climbing Chicago Center
Thu 08:06:42 AM 40.6053 -89.0889 92° East 360 414 14,100 1,597 Climbing Chicago Center
Thu 08:07:00 AM 40.6188 -88.9606 96° East  Level FlightAware Approximate
Thu 08:07:44 AM 40.6025 -88.9433 91° East 395 455 15,700  Level Chicago Center
Thu 08:08:46 AM 40.5989 -88.7703 92° East 419 482 16,800 968 Climbing Chicago Center
Thu 08:09:48 AM 40.5939 -88.6094 92° East 436 502 17,700 919 Climbing Chicago Center
Thu 08:10:50 AM 40.5906 -88.4444 91° East 449 517 18,700 1,122 Climbing Chicago Center
Thu 08:11:51 AM 40.5844 -88.2436 92° East 460 529 20,000 1,415 Climbing Chicago Center
Thu 08:12:53 AM 40.5842 -88.0786 90° East 458 527 21,600 1,742 Climbing Chicago Center
Thu 08:13:55 AM 40.6089 -87.9206 78° East 447 514 23,600 1,694 Climbing Chicago Center
Thu 08:14:57 AM 40.6308 -87.7675 79° East 434 499 25,100 1,113 Climbing Chicago Center
Thu 08:15:59 AM 40.6550 -87.6106 78° East 437 503 25,900 677 Climbing Chicago Center
Thu 08:17:01 AM 40.6789 -87.4506 79° East 443 510 26,500 1,073 Climbing Chicago Center
Thu 08:18:02 AM 40.7064 -87.2567 79° East 451 519 28,100 1,220 Climbing Chicago Center
Thu 08:19:04 AM 40.7272 -87.0994 80° East 442 509 29,000 435 Climbing Chicago Center
Thu 08:20:06 AM 40.7506 -86.9389 79° East 444 511 29,000  Level Chicago Center
Thu 08:21:08 AM 40.7731 -86.7789 79° East 444 511 29,000  Level Chicago Center
Thu 08:22:10 AM 40.7961 -86.6122 80° East 445 512 29,000 -48 Level Chicago Center
Thu 08:23:12 AM 40.8167 -86.4539 80° East 443 510 28,900 -290 Descending Chicago Center
Thu 08:24:14 AM 40.8378 -86.2947 80° East 443 510 28,400 -532 Descending Chicago Center
Thu 08:25:16 AM 40.8619 -86.1081 80° East 436 502 27,800 -581 Descending Chicago Center
Thu 08:26:18 AM 40.8828 -85.9506 80° East 436 502 27,200 -774 Descending Chicago Center
Thu 08:27:20 AM 40.9022 -85.7967 80° East 433 498 26,200 -919 Descending Chicago Center
Thu 08:28:22 AM 40.9214 -85.6494 80° East 414 476 25,300 -919 Descending Chicago Center
Thu 08:29:24 AM 40.9392 -85.5053 81° East 405 466 24,300 -968 Descending Chicago Center
Thu 08:30:26 AM 40.9572 -85.3656 80° East 393 452 23,300 -774 Descending Chicago Center
Thu 08:31:28 AM 40.9806 -85.1947 80° East 394 453 22,700 -829 Descending Chicago Center
Thu 08:32:29 AM 41.0672 -85.0933 41° Northeast 417 480 21,600 -780 Descending Chicago Center
Thu 08:33:31 AM 41.1628 -84.9917 39° Northeast 439 505 21,100 -290 Descending Chicago Center
Thu 08:34:33 AM 41.2619 -84.8850 39° Northeast 457 526 21,000 -48 Descending Chicago Center
Thu 08:35:35 AM 41.3578 -84.7811 39° Northeast 455 524 21,000  Level Chicago Center
Thu 08:36:09 AM 41.4117 -84.7133 43° Northeast 453 521 21,000  Level Cleveland Center
Thu 08:37:11 AM 41.4903 -84.5850 51° Northeast 452 520 21,000 -1,113 Level Cleveland Center
Thu 08:38:13 AM 41.5844 -84.4322 50° Northeast 451 519 18,700 -1,984 Descending Cleveland Center
Thu 08:39:15 AM 41.6606 -84.3092 50° Northeast 434 499 16,900 -2,056 Descending Cleveland Center
Thu 08:40:01 AM 41.7239 -84.2092 50° Northeast 420 483 15,000 -2,129 Descending Cleveland Center
Thu 08:40:17 AM 41.7319 -84.1964 50° Northeast 428 493 14,700 -2,000 Descending Cleveland Center
Thu 08:41:19 AM 41.8031 -84.0792 51° Northeast 411 473 12,400 -1,306 Descending Cleveland Center
Thu 08:42:21 AM 41.8811 -83.9467 52° Northeast 381 438 12,000 -320 Descending Cleveland Center
Thu 08:42:34 AM 41.8953 -83.9211 53° Northeast 371 427 12,000  Level Cleveland Center
Thu 08:43:35 AM 41.9611 -83.8072 52° Northeast 374 430 12,000  Level Cleveland Center
Thu 08:44:24 AM 42.0142 -83.7347 45° Northeast 375 432 12,000  Level Cleveland Center
Thu 08:44:37 AM 42.0358 -83.7142 35° Northeast 376 433 12,000  Level Cleveland Center
Thu 08:45:27 AM 42.0967 -83.6553 36° Northeast 371 427 12,000  Level Cleveland Center
Thu 08:45:44 AM 42.1269 -83.6233 38° Northeast 324 373 12,000  Level Cleveland Center
Thu 08:46:29 AM 42.1672 -83.5869 34° Northeast 319 367 12,000 -197 Level Cleveland Center
Thu 08:46:45 AM 42.1906 -83.5650 35° Northeast 246 283 11,800 -984 Descending Cleveland Center
Thu 08:47:30 AM 42.2286 -83.5289 35° Northeast 256 295 11,000 -857 Descending Cleveland Center
Thu 08:47:41 AM 42.2425 -83.5161 34° Northeast 251 289 11,000 -484 Level Cleveland Center
Thu 08:48:32 AM 42.2919 -83.4900 21° North 250 288 10,500 -716 Descending Cleveland Center
Thu 08:48:48 AM 42.3125 -83.4781 23° Northeast 248 285 10,200 -1,065 Descending Cleveland Center
Thu 08:49:34 AM 42.3564 -83.4519 24° Northeast 250 288 9,400 -1,279 Descending Cleveland Center
Thu 08:49:49 AM 42.3786 -83.4367 27° Northeast 239 275 8,900 -1,548 Descending Cleveland Center
Thu 08:50:36 AM 42.4250 -83.4047 27° Northeast 238 274 7,800 -1,355 Descending Cleveland Center
Thu 08:50:51 AM 42.4383 -83.3972 23° Northeast 239 275 7,500 -1,065 Descending Cleveland Center
Thu 08:51:38 AM 42.4747 -83.3547 41° Northeast 235 270 6,700 -1,211 Descending Cleveland Center
Thu 08:52:40 AM 42.4639 -83.2856 102° East 191 220 5,300 -1,407 Descending Cleveland Center
Thu 08:52:59 AM 42.4572 -83.2611 110° East 190 219 4,800 -1,258 Descending Cleveland Center
Thu 08:53:42 AM 42.4394 -83.2319 130° Southeast 187 215 4,000 -432 Descending Cleveland Center
Thu 08:54:50 AM 42.3872 -83.2458 191° South 157 181 4,000 -96 Level Cleveland Center
Thu 08:55:47 AM 42.3572 -83.2700 211° Southwest 161 185 3,800 -605 Descending Cleveland Center
Thu 08:56:49 AM 42.3183 -83.2981 208° Southwest 161 185 2,800 -1,000 Descending Cleveland Center
Thu 08:56:59 AM 42.3050 -83.3078 208° Southwest 145 167 2,600 -774 Descending Cleveland Center
Thu 08:57:51 AM 42.2828 -83.3250 210° Southwest 154 177 2,000 -789 Descending Cleveland Center
Thu 08:58:53 AM 42.2428 -83.3542 208° Southwest 141 162 1,100 -581 Descending Cleveland Center
Thu 08:59:55 AM 42.2108 -83.3781 209° Southwest 141 162 800 -290 Descending Cleveland Center

Login

Don't have an account? Register now (free) for customized features, flight alerts, and more!